Meridian Naval Air Station
KNMM : now visible

Airfield :











YOU CAN JOIN US ON...

 
LOGIN :

Register | Disclaimer

   EN    FR    IT 

 









Legend :    VFR   Marginal VFR   IFR   Intensive IFR   Very Intensive IFR
Visi :
Ceiling :
>= 8 km
>= 3000ft
5 to 8 km
1000 to 3000 ft
1500m to 5 km
500 to 1000 ft
800 to 1500m
200 to 500 ft
< 800m
< 200 ft
Symbols :   Thunderstorms  Fog  Heavy snow  Heavy precipitations  Wind > 20 kt






- Airport Elevation : 316 ft


KNMM - Meridian Naval Air Station

CURRENT METAR :
  • 061456Z 13006KT 10SM BKN033 BKN042 OVC070 11/08 A3010 RMK AO2 SLP202 60001 T01110083 58008

EXPIRED METARs :
  • 061356Z 16004KT 10SM FEW030 BKN070 BKN150 09/07 A3011 RMK AO2 SLP208 T00940067
  • 061256Z 16005KT 10SM FEW065 SCT090 BKN150 09/06 A3012 RMK AO2 RAB14E39 SLP211 P0001 T00890061

TAF TAF KNMM
Valid from the 06 at 15:00 until the 07 at 15:00 UTC


0615/0715 13006KT 9999 BKN033 BKN042 OVC070 641009 641904 551809 552709 553602 QNH3006INS
FM061600 17005KT 9999 VCTS SCT025CB BKN040 OVC070 641009 641904 551809 552709 553602 QNH3003INS
TEMPO 0616/0620 VRB15G25KT 1200 +TSRA BR BKN008CB OVC015
FM062000 VRB04KT 9999 SCT008 BKN015 OVC030 600000 551809 552709 553605 QNH3003INS
FM070500 36005KT 4800 BR OVC005 500000 QNH3018INS
FM071300 01005KT 1200 BR OVC003 QNH3022INS T16/0621Z T08/0712Z FN20035



MET'MAP, your aeronautical weather chart ! - Copyright ORBIFLY December 2007 - Disclaimer

ORBIFLY MET'MAP TEAM :

Programming & Development : Alexandra Zaïnal
Concept & original design : Baudouin d'Aumeries
Assistance for programming : Marc-Olivier Méhu
Technical & hardware support : Manuel Goepfert

Contact : metmap@orbifly.com




SOURCES & CREDITS :

   NOAA       Earth
Advisory